Time;durP1;ratioP1;P1;durP2;ratioP2;P2;SDS_P1;SDS_P2;PMS_P1;PMS_P2;Temp;Humidity;BMP_temperature;BMP_pressure;BME280_temperature;BME280_humidity;BME280_pressure;Samples;Min_cycle;Max_cycle;Signal;HPM_P1;HPM_P2
2023/01/28 00:00:55;;;;;;;7.90;7.10;;;3.30;99.90;;;;;;5052921;28;20761;-69
2023/01/28 00:03:20;;;;;;;9.00;7.00;;;3.10;99.90;;;;;;5053398;28;20170;-69
2023/01/28 00:05:46;;;;;;;8.70;7.80;;;3.20;99.90;;;;;;5053725;28;20198;-70
2023/01/28 00:08:13;;;;;;;14.63;9.93;;;3.30;99.90;;;;;;5053455;28;20198;-70
2023/01/28 00:10:39;;;;;;;9.90;8.00;;;2.90;99.90;;;;;;5053649;28;20162;-70
2023/01/28 00:13:06;;;;;;;8.60;7.33;;;3.10;99.90;;;;;;5051837;28;20440;-71
2023/01/28 00:15:32;;;;;;;8.53;7.37;;;2.90;99.90;;;;;;5052807;28;20448;-70
2023/01/28 00:17:57;;;;;;;9.20;7.00;;;2.80;99.90;;;;;;5035511;28;20420;-69
2023/01/28 00:20:23;;;;;;;8.90;7.53;;;2.70;99.90;;;;;;5053226;28;20764;-70
2023/01/28 00:22:48;;;;;;;8.80;7.63;;;2.70;99.90;;;;;;5053243;28;20206;-70
2023/01/28 00:25:14;;;;;;;8.53;7.70;;;2.60;99.90;;;;;;5051232;28;20198;-70
2023/01/28 00:27:40;;;;;;;9.47;7.77;;;2.70;99.90;;;;;;5035242;28;20170;-70
2023/01/28 00:30:06;;;;;;;8.77;7.87;;;2.80;99.90;;;;;;5052529;28;20896;-70
2023/01/28 00:32:32;;;;;;;9.57;7.80;;;2.70;99.90;;;;;;5052846;28;20178;-70
2023/01/28 00:34:57;;;;;;;8.33;7.00;;;2.70;99.90;;;;;;5034860;28;20457;-69
2023/01/28 00:37:23;;;;;;;8.63;7.33;;;2.90;99.90;;;;;;5052833;28;20167;-70
2023/01/28 00:39:48;;;;;;;9.73;8.73;;;2.90;99.90;;;;;;5052821;28;20159;-70
2023/01/28 00:42:15;;;;;;;12.57;9.70;;;2.80;99.90;;;;;;5052891;28;20534;-70
2023/01/28 00:44:40;;;;;;;8.27;7.43;;;3.00;99.90;;;;;;5034812;28;20629;-70
2023/01/28 00:47:06;;;;;;;8.20;6.90;;;2.80;99.90;;;;;;5052133;28;20463;-69
2023/01/28 00:49:31;;;;;;;15.50;7.77;;;2.80;99.90;;;;;;5052734;28;20216;-71
2023/01/28 00:51:57;;;;;;;7.97;7.17;;;2.80;99.90;;;;;;5053231;28;20254;-70
2023/01/28 00:54:23;;;;;;;11.47;8.77;;;2.90;99.90;;;;;;5052152;28;20252;-70
2023/01/28 00:56:48;;;;;;;8.80;7.07;;;3.10;99.90;;;;;;5034792;28;20218;-70
2023/01/28 00:59:14;;;;;;;12.67;8.60;;;3.20;99.90;;;;;;5052522;28;20201;-70
2023/01/28 01:01:39;;;;;;;17.57;11.80;;;3.20;99.90;;;;;;5052752;28;20300;-70
2023/01/28 01:04:05;;;;;;;11.57;9.80;;;3.40;99.90;;;;;;5052855;28;20239;-70
2023/01/28 01:06:34;;;;;;;8.03;7.10;;;3.50;99.90;;;;;;5052576;28;20163;-70
2023/01/28 01:09:00;;;;;;;8.07;6.80;;;3.40;99.90;;;;;;5034690;28;20182;-70
2023/01/28 01:11:25;;;;;;;9.30;7.77;;;3.40;99.90;;;;;;5052703;28;20916;-70
2023/01/28 01:13:56;;;;;;;9.93;8.20;;;3.40;99.90;;;;;;5051203;28;20476;-69
2023/01/28 01:16:24;;;;;;;7.87;6.90;;;3.50;99.90;;;;;;5052778;28;20187;-69
2023/01/28 01:18:51;;;;;;;12.80;7.87;;;3.50;99.90;;;;;;5052980;28;20912;-70
2023/01/28 01:21:19;;;;;;;15.30;11.00;;;3.60;99.90;;;;;;5052545;28;20389;-70
2023/01/28 01:23:45;;;;;;;12.43;8.43;;;3.30;99.90;;;;;;5052391;28;20421;-69
2023/01/28 01:26:12;;;;;;;9.20;7.53;;;3.50;99.90;;;;;;5052172;28;20414;-70
2023/01/28 01:28:38;;;;;;;10.77;7.80;;;3.60;99.90;;;;;;5052059;28;20444;-69
2023/01/28 01:31:07;;;;;;;9.20;8.30;;;3.70;99.90;;;;;;5052302;28;20465;-70
2023/01/28 01:33:33;;;;;;;11.77;8.40;;;3.70;99.90;;;;;;5052319;28;20559;-70
2023/01/28 01:35:58;;;;;;;8.07;6.67;;;3.70;99.90;;;;;;5034583;28;20765;-70
2023/01/28 01:38:24;;;;;;;8.20;6.53;;;3.70;99.90;;;;;;5055879;28;20402;-69
2023/01/28 01:40:50;;;;;;;11.10;7.17;;;3.50;99.90;;;;;;5037945;28;20409;-70
2023/01/28 01:43:17;;;;;;;9.07;7.00;;;3.30;99.90;;;;;;5053947;28;20461;-70
2023/01/28 01:45:46;;;;;;;11.43;8.50;;;3.30;99.90;;;;;;5055379;28;20186;-69
2023/01/28 01:48:23;;;;;;;8.83;7.40;;;3.20;99.90;;;;;;5037743;28;20416;-70
2023/01/28 01:50:56;;;;;;;10.67;7.87;;;3.30;99.90;;;;;;5055971;28;20484;-70
2023/01/28 01:53:25;;;;;;;8.60;7.30;;;3.30;99.90;;;;;;5055461;28;20393;-70
2023/01/28 01:55:54;;;;;;;7.60;6.80;;;3.40;99.90;;;;;;5055329;28;20444;-70
2023/01/28 01:58:24;;;;;;;8.20;6.60;;;3.40;99.90;;;;;;5055438;28;20471;-70
2023/01/28 02:00:50;;;;;;;12.63;8.90;;;3.20;99.90;;;;;;5054991;28;20411;-70
2023/01/28 02:03:22;;;;;;;7.80;6.33;;;2.90;99.90;;;;;;5053906;28;20405;-69
2023/01/28 02:05:49;;;;;;;10.37;6.73;;;2.90;99.90;;;;;;5055702;28;20389;-70
2023/01/28 02:08:21;;;;;;;9.17;7.70;;;3.20;99.90;;;;;;5055340;28;20470;-69
2023/01/28 02:10:53;;;;;;;14.20;8.00;;;3.30;99.90;;;;;;5055309;28;20393;-70
2023/01/28 02:13:24;;;;;;;10.87;7.07;;;3.30;99.90;;;;;;5055024;28;20396;-71
2023/01/28 02:15:50;;;;;;;6.90;6.20;;;3.40;99.90;;;;;;5055081;28;20935;-70
2023/01/28 02:18:16;;;;;;;8.23;6.80;;;3.30;99.90;;;;;;5055296;28;20397;-70
2023/01/28 02:21:18;;;;;;;13.20;7.77;;;3.40;99.90;;;;;;5055710;28;20401;-69
2023/01/28 02:23:55;;;;;;;8.90;5.93;;;3.40;99.90;;;;;;5054911;28;20182;-69
2023/01/28 02:26:48;;;;;;;11.70;7.77;;;3.30;99.90;;;;;;5055052;28;20378;-69
2023/01/28 02:29:27;;;;;;;8.00;6.50;;;3.10;99.90;;;;;;5053291;28;20490;-69
2023/01/28 02:32:18;;;;;;;7.10;5.87;;;3.10;99.90;;;;;;5054949;28;20439;-70
2023/01/28 02:34:56;;;;;;;7.17;6.20;;;3.20;99.90;;;;;;5054764;28;20427;-70
2023/01/28 02:38:13;;;;;;;7.03;6.10;;;3.20;99.90;;;;;;5055192;28;20484;-70
2023/01/28 02:43:44;;;;;;;7.03;6.33;;;3.50;99.90;;;;;;5054540;28;20424;-70
2023/01/28 02:49:29;;;;;;;6.77;6.17;;;3.80;99.90;;;;;;5055106;28;20404;-70
2023/01/28 02:52:04;;;;;;;7.30;6.60;;;3.60;99.90;;;;;;5054846;28;20736;-70
2023/01/28 02:54:59;;;;;;;6.90;5.97;;;3.70;99.90;;;;;;5054045;28;20436;-69
2023/01/28 02:57:40;;;;;;;6.23;5.60;;;3.50;99.90;;;;;;5053940;28;20398;-70
2023/01/28 03:00:21;;;;;;;6.13;5.27;;;3.00;99.90;;;;;;5053888;28;20463;-70
2023/01/28 03:02:53;;;;;;;6.77;4.93;;;3.00;99.90;;;;;;5054615;28;20383;-69
2023/01/28 03:05:25;;;;;;;6.23;5.63;;;3.00;99.90;;;;;;5054406;28;20824;-70
2023/01/28 03:07:51;;;;;;;6.50;5.47;;;2.90;99.90;;;;;;5054064;28;20433;-70
2023/01/28 03:10:21;;;;;;;6.53;5.47;;;2.80;99.90;;;;;;5054029;28;20412;-70
2023/01/28 03:38:24;;;;;;;10.60;9.13;;;2.70;99.90;;;;;;5054420;28;20389;-70
2023/01/28 03:40:51;;;;;;;8.73;7.83;;;2.80;99.90;;;;;;5053811;28;20407;-70
2023/01/28 03:43:16;;;;;;;8.23;7.33;;;3.10;99.90;;;;;;5053336;28;20906;-70
2023/01/28 03:45:42;;;;;;;10.33;9.10;;;3.30;99.90;;;;;;5053246;28;20421;-70
2023/01/28 03:48:07;;;;;;;10.53;8.87;;;3.30;99.90;;;;;;5053367;28;20547;-69
2023/01/28 03:50:33;;;;;;;9.23;7.70;;;3.10;99.90;;;;;;5053411;28;20543;-70
2023/01/28 03:53:10;;;;;;;9.03;8.13;;;3.00;99.90;;;;;;5053527;28;20594;-71
2023/01/28 03:55:36;;;;;;;9.40;7.53;;;3.10;99.90;;;;;;5053917;28;20186;-69
2023/01/28 03:58:04;;;;;;;8.90;7.73;;;3.30;99.90;;;;;;5053490;28;20458;-70
2023/01/28 04:00:31;;;;;;;8.07;7.13;;;2.90;99.90;;;;;;5051608;28;20170;-71
2023/01/28 04:02:57;;;;;;;10.07;7.90;;;2.80;99.90;;;;;;5053642;28;20953;-70
2023/01/28 04:05:24;;;;;;;9.60;8.57;;;2.80;99.90;;;;;;5053218;28;20424;-70
2023/01/28 04:07:53;;;;;;;9.73;8.13;;;2.80;99.90;;;;;;5053329;28;20421;-69
2023/01/28 04:10:19;;;;;;;9.77;8.63;;;2.90;99.90;;;;;;5053452;28;20466;-69
2023/01/28 04:12:44;;;;;;;21.80;14.50;;;3.20;99.90;;;;;;5035134;28;20409;-69
2023/01/28 04:15:16;;;;;;;11.90;9.07;;;3.20;99.90;;;;;;5051794;28;20194;-70
2023/01/28 04:17:46;;;;;;;11.10;9.80;;;3.00;99.90;;;;;;5051786;28;20163;-70
2023/01/28 04:20:12;;;;;;;18.90;12.60;;;2.90;99.90;;;;;;5053011;28;20405;-70
2023/01/28 04:22:38;;;;;;;13.90;11.57;;;2.90;99.90;;;;;;5052849;28;20416;-69
2023/01/28 04:25:04;;;;;;;11.53;9.60;;;3.10;99.90;;;;;;5035063;28;20424;-70
2023/01/28 04:27:29;;;;;;;12.43;9.80;;;3.20;99.90;;;;;;5053226;28;20171;-70
2023/01/28 04:29:55;;;;;;;13.93;10.90;;;3.10;99.90;;;;;;5052444;28;20433;-70
2023/01/28 04:32:20;;;;;;;13.27;10.20;;;2.80;99.90;;;;;;5052979;28;20167;-69
2023/01/28 04:34:46;;;;;;;11.27;9.40;;;3.00;99.90;;;;;;5052988;28;20194;-71
2023/01/28 04:37:11;;;;;;;13.90;11.20;;;3.00;99.90;;;;;;5053016;28;20186;-70
2023/01/28 04:39:37;;;;;;;23.20;14.50;;;2.80;99.90;;;;;;5035023;28;20163;-70
2023/01/28 04:42:03;;;;;;;11.93;10.50;;;2.60;99.90;;;;;;5051664;28;20198;-70
2023/01/28 04:44:28;;;;;;;12.93;10.63;;;2.50;99.90;;;;;;5075831;22;20225;-71
2023/01/28 04:46:54;;;;;;;18.73;12.10;;;2.60;99.90;;;;;;5091896;28;20252;-70
2023/01/28 04:49:19;;;;;;;23.00;13.20;;;2.70;99.90;;;;;;5092726;28;20169;-70
2023/01/28 04:51:45;;;;;;;16.17;11.27;;;2.50;99.90;;;;;;5092923;28;20169;-70
2023/01/28 04:54:10;;;;;;;15.00;10.30;;;2.60;99.90;;;;;;5092799;28;20189;-71
2023/01/28 04:56:36;;;;;;;12.03;10.63;;;2.70;99.90;;;;;;5088939;28;20737;-70
2023/01/28 04:59:02;;;;;;;16.10;10.33;;;3.00;99.90;;;;;;5074283;28;20165;-70
2023/01/28 05:01:28;;;;;;;11.60;10.40;;;3.10;99.90;;;;;;5092998;28;20179;-71
2023/01/28 05:03:54;;;;;;;12.90;11.00;;;3.30;99.90;;;;;;5074340;28;20172;-71
2023/01/28 05:06:19;;;;;;;11.60;9.93;;;3.40;99.90;;;;;;5093462;28;20403;-70
2023/01/28 05:08:45;;;;;;;13.40;8.67;;;3.40;99.90;;;;;;5074568;28;20215;-70
2023/01/28 05:11:11;;;;;;;11.73;10.40;;;3.40;99.90;;;;;;5093080;28;20165;-72
2023/01/28 05:13:37;;;;;;;12.77;10.10;;;3.10;99.90;;;;;;5096346;28;20165;-71
2023/01/28 05:16:03;;;;;;;12.27;9.53;;;3.20;99.90;;;;;;5075382;28;20455;-71
2023/01/28 05:18:28;;;;;;;12.27;10.10;;;3.30;99.90;;;;;;5076186;28;20571;-71
2023/01/28 05:20:54;;;;;;;11.30;9.70;;;3.40;99.90;;;;;;5076145;28;20162;-71
2023/01/28 05:23:19;;;;;;;13.17;9.90;;;3.50;99.90;;;;;;5076081;28;20166;-71
2023/01/28 05:25:45;;;;;;;12.97;10.43;;;3.60;99.90;;;;;;5076099;28;20272;-71
2023/01/28 05:28:11;;;;;;;13.73;10.10;;;3.60;99.90;;;;;;5076163;28;20181;-71
2023/01/28 05:30:37;;;;;;;12.80;9.97;;;3.40;99.90;;;;;;5075524;28;20548;-71
2023/01/28 05:33:03;;;;;;;13.90;11.27;;;3.50;99.90;;;;;;5076190;28;20219;-71
2023/01/28 05:35:29;;;;;;;9.67;8.67;;;3.60;99.90;;;;;;5076378;28;20451;-71
2023/01/28 05:37:54;;;;;;;10.57;9.47;;;3.60;99.90;;;;;;5076064;28;20198;-71
2023/01/28 05:40:20;;;;;;;10.80;9.53;;;3.30;99.90;;;;;;5057995;28;20323;-72
2023/01/28 05:42:46;;;;;;;10.90;9.50;;;3.10;99.90;;;;;;5075773;28;20201;-71
2023/01/28 05:45:11;;;;;;;12.57;10.37;;;3.20;99.90;;;;;;5075233;28;20213;-71
2023/01/28 05:47:38;;;;;;;10.90;9.60;;;3.30;99.90;;;;;;5076417;28;20529;-71
2023/01/28 05:50:05;;;;;;;11.80;10.10;;;3.40;99.90;;;;;;5076189;28;20170;-71
2023/01/28 05:52:30;;;;;;;13.30;10.87;;;3.50;99.90;;;;;;5075813;28;20494;-71
2023/01/28 05:54:56;;;;;;;10.83;9.70;;;3.50;99.90;;;;;;5075916;28;20902;-71
2023/01/28 05:57:21;;;;;;;10.10;8.57;;;3.70;99.90;;;;;;5075783;28;20666;-71
2023/01/28 05:59:47;;;;;;;13.40;10.83;;;3.70;99.90;;;;;;5075621;28;20603;-72
2023/01/28 06:02:12;;;;;;;11.27;9.57;;;3.40;99.90;;;;;;5075962;28;20223;-72
2023/01/28 06:04:38;;;;;;;11.03;9.67;;;3.40;99.90;;;;;;5075898;28;20533;-71
2023/01/28 06:07:04;;;;;;;11.20;9.50;;;3.40;99.90;;;;;;5075574;28;20640;-71
2023/01/28 06:09:29;;;;;;;11.23;9.57;;;3.30;99.90;;;;;;5041204;28;20617;-71
2023/01/28 06:11:55;;;;;;;13.03;11.33;;;3.50;99.90;;;;;;5075576;28;20543;-72
2023/01/28 06:14:20;;;;;;;12.03;9.67;;;3.50;99.90;;;;;;5075297;28;20197;-71
2023/01/28 06:16:46;;;;;;;11.50;9.70;;;3.60;99.90;;;;;;5074979;28;20182;-71
2023/01/28 06:19:11;;;;;;;10.27;8.67;;;3.70;99.90;;;;;;5075491;28;20174;-72
2023/01/28 06:21:37;;;;;;;12.57;10.77;;;3.80;99.90;;;;;;5075682;28;20166;-70
2023/01/28 06:24:03;;;;;;;12.17;9.73;;;3.80;99.90;;;;;;5056279;28;20315;-70
2023/01/28 06:26:29;;;;;;;12.50;10.90;;;3.90;99.90;;;;;;5076079;28;20195;-70
2023/01/28 06:28:55;;;;;;;11.40;9.70;;;3.90;99.90;;;;;;5075436;28;20277;-71
2023/01/28 06:31:20;;;;;;;12.83;9.60;;;3.90;99.90;;;;;;5074364;28;20170;-70
2023/01/28 06:33:46;;;;;;;12.87;10.40;;;4.00;99.90;;;;;;5074993;28;20550;-71
2023/01/28 06:36:12;;;;;;;11.13;9.93;;;4.10;99.90;;;;;;5074923;28;20201;-71
2023/01/28 06:38:37;;;;;;;11.67;10.50;;;4.10;99.90;;;;;;5074903;28;20202;-71
2023/01/28 06:41:03;;;;;;;11.97;10.10;;;4.10;99.90;;;;;;5074926;28;20173;-71
2023/01/28 06:43:29;;;;;;;11.33;10.07;;;4.10;99.90;;;;;;5075254;28;20166;-71
2023/01/28 06:45:58;;;;;;;11.30;9.60;;;4.10;99.90;;;;;;5073920;28;20213;-71
2023/01/28 06:48:25;;;;;;;11.93;9.87;;;4.20;99.90;;;;;;5074713;28;20404;-71
2023/01/28 06:50:51;;;;;;;11.93;10.63;;;4.20;99.90;;;;;;5092167;28;20407;-71
2023/01/28 06:53:17;;;;;;;11.20;10.03;;;4.10;99.90;;;;;;5096662;28;20962;-71
2023/01/28 06:55:43;;;;;;;12.10;10.43;;;4.10;99.90;;;;;;5095949;28;20213;-71
2023/01/28 06:58:10;;;;;;;11.23;9.70;;;3.90;99.90;;;;;;5095487;28;20406;-71
2023/01/28 07:00:36;;;;;;;12.93;11.27;;;3.60;99.90;;;;;;5076199;28;20435;-70
2023/01/28 07:03:02;;;;;;;12.33;9.70;;;3.70;99.90;;;;;;5094360;28;20411;-71
2023/01/28 07:05:28;;;;;;;13.50;11.77;;;3.80;99.90;;;;;;5094566;28;20431;-71
2023/01/28 07:07:53;;;;;;;12.67;9.37;;;3.90;99.90;;;;;;5094884;28;20407;-70
2023/01/28 07:10:19;;;;;;;11.43;10.23;;;4.00;99.90;;;;;;5094508;28;20193;-71
2023/01/28 07:12:44;;;;;;;13.50;11.80;;;3.60;99.90;;;;;;5076317;28;20540;-71
2023/01/28 07:15:10;;;;;;;10.50;9.40;;;3.70;99.90;;;;;;5084086;28;20190;-71
2023/01/28 07:17:40;;;;;;;13.03;11.53;;;3.70;99.90;;;;;;5056787;28;20162;-71
2023/01/28 07:20:07;;;;;;;11.53;10.23;;;3.80;99.90;;;;;;5074103;28;20165;-71
2023/01/28 07:22:33;;;;;;;13.80;11.60;;;3.80;99.90;;;;;;5073772;28;20405;-72
2023/01/28 07:25:00;;;;;;;13.13;10.93;;;3.80;99.90;;;;;;5073700;28;20765;-71
2023/01/28 07:27:26;;;;;;;12.10;10.87;;;3.90;99.90;;;;;;5074354;28;20205;-71
2023/01/28 07:29:51;;;;;;;14.40;11.03;;;3.90;99.90;;;;;;5073550;28;20827;-72
2023/01/28 07:32:17;;;;;;;12.13;9.70;;;3.60;99.90;;;;;;5074025;28;20396;-71
2023/01/28 07:34:42;;;;;;;13.20;11.70;;;3.30;99.90;;;;;;5073166;28;20190;-70
2023/01/28 07:37:09;;;;;;;12.77;11.13;;;3.10;99.90;;;;;;5073689;28;20201;-71
2023/01/28 07:39:34;;;;;;;12.50;10.63;;;3.30;99.90;;;;;;5073775;28;20174;-71
2023/01/28 07:42:00;;;;;;;12.90;11.20;;;3.50;99.90;;;;;;5055777;28;20840;-72
2023/01/28 07:44:26;;;;;;;16.80;13.67;;;3.40;99.90;;;;;;5073024;28;20223;-71
2023/01/28 07:46:52;;;;;;;18.00;14.90;;;3.30;99.90;;;;;;5055180;28;20408;-70
2023/01/28 07:49:18;;;;;;;13.77;12.37;;;3.40;99.90;;;;;;5073423;28;20174;-71
2023/01/28 07:51:45;;;;;;;14.47;11.10;;;3.20;99.90;;;;;;5073400;28;20409;-70
2023/01/28 07:54:12;;;;;;;13.00;10.70;;;3.50;99.90;;;;;;5073261;28;20190;-71
2023/01/28 07:56:37;;;;;;;12.17;10.80;;;3.70;99.90;;;;;;5073441;28;20450;-71
2023/01/28 07:59:03;;;;;;;13.30;10.07;;;3.80;99.90;;;;;;5073150;28;20408;-71
2023/01/28 08:01:28;;;;;;;13.53;11.03;;;3.90;99.90;;;;;;5072902;28;20629;-70
2023/01/28 08:03:54;;;;;;;13.73;10.33;;;3.60;99.90;;;;;;5073022;28;20215;-71
2023/01/28 08:06:20;;;;;;;13.70;11.13;;;3.60;99.90;;;;;;5073073;28;20660;-72
2023/01/28 08:08:46;;;;;;;12.97;10.97;;;3.80;99.90;;;;;;5055303;28;20181;-71
2023/01/28 08:11:12;;;;;;;12.70;10.50;;;3.90;99.90;;;;;;5073343;28;20223;-71
2023/01/28 08:13:38;;;;;;;10.87;9.60;;;3.80;99.90;;;;;;5073213;28;20407;-71
2023/01/28 08:16:03;;;;;;;13.23;10.20;;;3.60;99.90;;;;;;5071852;28;20271;-71
2023/01/28 08:18:29;;;;;;;13.17;11.77;;;3.50;99.90;;;;;;5073010;28;20173;-71
2023/01/28 08:20:56;;;;;;;13.20;11.20;;;3.40;99.90;;;;;;5073093;28;20400;-70
2023/01/28 08:23:22;;;;;;;13.57;10.17;;;3.10;99.90;;;;;;5073322;28;20216;-71
2023/01/28 08:25:48;;;;;;;13.03;11.27;;;3.10;99.90;;;;;;5073064;28;20447;-71
2023/01/28 08:28:15;;;;;;;15.47;11.70;;;3.30;99.90;;;;;;5073580;28;20763;-73
2023/01/28 08:30:40;;;;;;;11.83;10.63;;;3.40;99.90;;;;;;5072460;28;20166;-70
2023/01/28 08:33:08;;;;;;;12.90;10.70;;;3.40;99.90;;;;;;5073052;28;20412;-70
2023/01/28 08:35:34;;;;;;;14.83;11.67;;;3.50;99.90;;;;;;5072593;28;20208;-70
2023/01/28 08:38:01;;;;;;;11.73;10.27;;;3.60;99.90;;;;;;5072865;28;20813;-71
2023/01/28 08:40:27;;;;;;;13.20;11.03;;;3.40;99.90;;;;;;5072896;28;20427;-70
2023/01/28 08:42:53;;;;;;;11.77;10.23;;;3.20;99.90;;;;;;5061313;28;20411;-70
2023/01/28 08:45:26;;;;;;;16.60;12.03;;;3.00;99.90;;;;;;5082454;28;20566;-72
2023/01/28 08:47:55;;;;;;;14.80;11.80;;;3.30;99.90;;;;;;5076004;28;20736;-71
2023/01/28 08:50:22;;;;;;;13.47;11.63;;;3.70;99.90;;;;;;5077047;28;20404;-71
2023/01/28 08:52:53;;;;;;;14.17;12.10;;;3.80;99.90;;;;;;5077086;28;20411;-70
2023/01/28 08:55:19;;;;;;;15.47;11.87;;;3.80;99.90;;;;;;5091096;28;20462;-71
2023/01/28 08:57:44;;;;;;;15.17;13.00;;;3.50;99.90;;;;;;5097175;28;20877;-71
2023/01/28 09:00:10;;;;;;;13.77;11.77;;;3.90;99.90;;;;;;5096730;28;20245;-71
2023/01/28 09:02:37;;;;;;;14.20;12.20;;;4.10;99.90;;;;;;5097112;28;20161;-71
2023/01/28 09:05:04;;;;;;;13.40;12.00;;;4.30;99.90;;;;;;5097027;28;20423;-70
2023/01/28 09:07:30;;;;;;;13.73;12.23;;;4.10;99.90;;;;;;5097103;28;20929;-70
2023/01/28 09:09:55;;;;;;;17.07;13.30;;;4.10;99.90;;;;;;5096465;28;20403;-69
2023/01/28 09:12:21;;;;;;;13.50;12.10;;;4.30;99.90;;;;;;5096571;28;20411;-70
2023/01/28 09:14:47;;;;;;;16.90;13.60;;;4.40;99.90;;;;;;5090695;28;20624;-70
2023/01/28 09:17:12;;;;;;;14.50;12.00;;;4.70;99.90;;;;;;5075761;28;20556;-71
2023/01/28 09:19:38;;;;;;;17.00;13.20;;;4.80;99.90;;;;;;5076418;28;20174;-71
2023/01/28 09:22:03;;;;;;;15.03;11.83;;;4.70;99.90;;;;;;5076663;28;20185;-71
2023/01/28 09:24:29;;;;;;;14.87;12.47;;;4.50;99.90;;;;;;5076283;28;20296;-72
2023/01/28 09:26:55;;;;;;;14.40;12.30;;;4.70;99.90;;;;;;5076559;28;20403;-68
2023/01/28 09:29:20;;;;;;;15.93;11.63;;;4.80;99.90;;;;;;5076347;28;20174;-71
2023/01/28 09:31:46;;;;;;;15.30;13.10;;;4.60;99.90;;;;;;5076140;28;20214;-71
2023/01/28 09:34:12;;;;;;;16.33;13.83;;;4.50;99.90;;;;;;5076638;28;20730;-71
2023/01/28 09:36:37;;;;;;;15.10;13.07;;;4.40;99.90;;;;;;5076651;28;20198;-71
2023/01/28 09:39:03;;;;;;;15.70;12.93;;;4.10;99.90;;;;;;5075938;28;20167;-71
2023/01/28 09:41:48;;;;;;;14.10;12.17;;;4.20;99.90;;;;;;5075824;28;20219;-71
2023/01/28 09:44:41;;;;;;;16.33;12.63;;;4.50;99.90;;;;;;5075353;28;20537;-71
2023/01/28 09:47:21;;;;;;;16.40;13.00;;;4.40;99.90;;;;;;5075321;28;20487;-70
2023/01/28 09:49:50;;;;;;;16.77;13.33;;;4.40;99.90;;;;;;5076443;28;20396;-71
2023/01/28 09:52:20;;;;;;;15.27;13.47;;;4.30;99.90;;;;;;5075534;28;20422;-71
2023/01/28 09:55:01;;;;;;;16.97;13.30;;;4.10;99.90;;;;;;5075319;28;20797;-70
2023/01/28 09:57:36;;;;;;;18.60;14.30;;;3.80;99.90;;;;;;5057296;28;20412;-71
2023/01/28 10:00:09;;;;;;;16.37;12.97;;;3.90;99.90;;;;;;5075432;28;20398;-71
2023/01/28 10:02:34;;;;;;;14.90;12.97;;;4.20;99.90;;;;;;5075245;28;20381;-71
2023/01/28 10:05:12;;;;;;;18.77;14.70;;;4.10;99.90;;;;;;5075273;28;20424;-71
2023/01/28 10:08:04;;;;;;;19.23;15.00;;;4.30;99.90;;;;;;5075817;28;20157;-71
2023/01/28 10:10:42;;;;;;;18.93;15.47;;;4.20;99.90;;;;;;5075614;28;20384;-71
2023/01/28 10:13:47;;;;;;;18.77;15.73;;;4.30;99.90;;;;;;5075198;28;20475;-71
2023/01/28 10:16:24;;;;;;;17.43;14.90;;;4.00;99.90;;;;;;5063097;28;20821;-71
2023/01/28 10:19:03;;;;;;;18.20;14.20;;;4.00;99.90;;;;;;5075538;28;20419;-71
2023/01/28 10:21:40;;;;;;;14.37;12.70;;;4.00;99.90;;;;;;5075000;28;20388;-71
2023/01/28 10:24:16;;;;;;;19.33;15.23;;;3.80;99.90;;;;;;5075200;28;20829;-71
2023/01/28 10:26:43;;;;;;;16.57;14.03;;;3.90;99.90;;;;;;5075151;28;20396;-70
2023/01/28 10:29:20;;;;;;;19.23;14.80;;;3.80;99.90;;;;;;5075180;28;20426;-71
2023/01/28 10:32:04;;;;;;;17.97;13.87;;;3.80;99.90;;;;;;5074288;28;20408;-71
2023/01/28 10:34:30;;;;;;;19.23;14.47;;;3.90;99.90;;;;;;5075351;28;20477;-71
2023/01/28 10:36:56;;;;;;;18.30;14.07;;;4.00;99.90;;;;;;5074907;28;20444;-71
2023/01/28 10:39:24;;;;;;;17.90;14.13;;;4.10;99.90;;;;;;5074836;28;20607;-71
2023/01/28 10:41:50;;;;;;;28.30;19.50;;;4.00;99.90;;;;;;5074669;28;20890;-71
2023/01/28 10:44:30;;;;;;;18.63;14.77;;;3.80;99.90;;;;;;5075433;28;20500;-70
2023/01/28 10:47:00;;;;;;;18.77;13.93;;;3.70;99.90;;;;;;5091136;28;20150;-70
2023/01/28 10:49:28;;;;;;;17.23;13.20;;;3.80;99.90;;;;;;5095019;28;20415;-70
2023/01/28 10:51:53;;;;;;;17.60;13.30;;;4.00;99.90;;;;;;5095090;28;20387;-71
2023/01/28 10:54:26;;;;;;;18.87;15.10;;;4.00;99.90;;;;;;5094896;28;20925;-71
2023/01/28 10:57:00;;;;;;;16.57;13.60;;;4.10;99.90;;;;;;5094948;28;20255;-72
2023/01/28 10:59:35;;;;;;;17.90;13.43;;;4.30;99.90;;;;;;5094567;28;20391;-71
2023/01/28 11:02:18;;;;;;;18.70;14.20;;;4.00;99.90;;;;;;5076184;28;20411;-72
2023/01/28 11:04:44;;;;;;;16.53;12.60;;;3.80;99.90;;;;;;5094716;28;20431;-70
2023/01/28 11:07:20;;;;;;;21.37;15.70;;;4.00;99.90;;;;;;5094582;28;20410;-72
2023/01/28 11:09:49;;;;;;;17.57;12.87;;;4.00;99.90;;;;;;5094044;28;20243;-71
2023/01/28 11:12:28;;;;;;;18.60;14.43;;;3.90;99.90;;;;;;5094876;28;20545;-72
2023/01/28 11:15:02;;;;;;;19.00;14.63;;;3.80;99.90;;;;;;5070447;28;21015;-72
2023/01/28 11:17:32;;;;;;;17.37;13.23;;;4.00;99.90;;;;;;5055661;28;20457;-71
2023/01/28 11:20:08;;;;;;;18.20;13.80;;;4.10;99.90;;;;;;5073943;28;20941;-71
2023/01/28 11:22:42;;;;;;;18.30;15.30;;;4.20;99.90;;;;;;5074242;28;20396;-71
2023/01/28 11:25:23;;;;;;;17.37;13.63;;;4.20;99.90;;;;;;5074439;28;20420;-72
2023/01/28 11:27:51;;;;;;;20.47;13.70;;;4.30;99.90;;;;;;5074257;28;20401;-71
2023/01/28 11:30:22;;;;;;;20.20;14.70;;;4.10;99.90;;;;;;5073647;28;20479;-71
2023/01/28 11:33:02;;;;;;;22.67;16.17;;;4.00;99.90;;;;;;5073657;28;20403;-71
2023/01/28 11:35:29;;;;;;;19.50;15.43;;;4.10;99.90;;;;;;5073783;28;20590;-71
2023/01/28 11:37:57;;;;;;;21.73;14.03;;;4.50;99.90;;;;;;5055602;28;20774;-71
2023/01/28 11:40:23;;;;;;;21.23;16.40;;;4.40;99.90;;;;;;5073687;28;20400;-71
2023/01/28 11:42:55;;;;;;;19.80;15.70;;;4.30;99.90;;;;;;5073691;28;20414;-71
2023/01/28 11:46:11;;;;;;;18.67;16.00;;;4.50;99.90;;;;;;5072730;28;20840;-71
2023/01/28 11:49:08;;;;;;;17.20;13.33;;;4.60;99.90;;;;;;5011639;28;20415;-71
2023/01/28 11:52:04;;;;;;;16.87;13.57;;;4.10;99.90;;;;;;5011666;28;20422;-71
2023/01/28 11:54:46;;;;;;;18.63;15.00;;;3.80;99.90;;;;;;5071059;28;20436;-72
2023/01/28 11:57:27;;;;;;;19.03;13.73;;;3.80;99.90;;;;;;5073179;28;20451;-71
2023/01/28 12:00:11;;;;;;;15.53;12.43;;;4.10;99.90;;;;;;5073577;28;20844;-71
2023/01/28 12:03:19;;;;;;;20.93;14.30;;;4.10;99.90;;;;;;5072901;28;20752;-71
2023/01/28 12:05:52;;;;;;;18.13;14.90;;;4.20;99.90;;;;;;5073363;28;20428;-71
2023/01/28 12:08:22;;;;;;;21.70;14.90;;;4.10;99.90;;;;;;5073001;28;20419;-70
2023/01/28 12:12:10;;;;;;;18.10;14.30;;;3.90;99.90;;;;;;5073086;28;20397;-71
2023/01/28 12:14:21;;;;;;;20.33;16.13;;;3.80;99.90;;;;;;5072738;28;20530;-71
2023/01/28 12:17:09;;;;;;;15.43;12.77;;;4.00;99.90;;;;;;5071894;28;20467;-71
2023/01/28 12:20:07;;;;;;;18.07;14.40;;;4.10;99.90;;;;;;5073259;28;20381;-70
2023/01/28 12:23:02;;;;;;;17.77;14.37;;;3.90;99.90;;;;;;5073111;28;20419;-71
2023/01/28 12:25:54;;;;;;;19.10;15.10;;;3.80;99.90;;;;;;5073483;28;20416;-71
2023/01/28 12:28:37;;;;;;;21.17;16.27;;;4.00;99.90;;;;;;5072938;28;20385;-71
2023/01/28 12:31:37;;;;;;;18.27;14.80;;;4.10;99.90;;;;;;5072484;28;20404;-71
2023/01/28 12:34:21;;;;;;;19.60;15.17;;;3.80;99.90;;;;;;5073402;28;20815;-72
2023/01/28 12:37:24;;;;;;;18.80;15.10;;;3.90;99.90;;;;;;5073101;28;20444;-72
2023/01/28 12:40:08;;;;;;;21.47;15.10;;;4.10;99.90;;;;;;5051890;28;20511;-72
2023/01/28 12:42:37;;;;;;;22.83;18.37;;;3.90;99.90;;;;;;5073086;28;20742;-73
2023/01/28 12:45:20;;;;;;;18.33;14.50;;;4.00;99.90;;;;;;5077678;28;20448;-71
2023/01/28 12:47:59;;;;;;;17.63;13.93;;;3.90;99.90;;;;;;5072893;28;20487;-72
2023/01/28 12:50:35;;;;;;;16.83;12.83;;;3.80;99.90;;;;;;5072721;28;20385;-71
2023/01/28 12:53:20;;;;;;;24.20;17.20;;;3.70;99.90;;;;;;5072957;28;20399;-71
2023/01/28 12:55:53;;;;;;;19.23;14.70;;;3.80;99.90;;;;;;5088261;28;20451;-71
2023/01/28 12:58:24;;;;;;;19.63;15.67;;;3.90;99.90;;;;;;5092881;28;20394;-71
2023/01/28 13:01:01;;;;;;;17.03;13.73;;;4.10;99.90;;;;;;5092372;28;20419;-71
2023/01/28 13:03:37;;;;;;;17.97;12.20;;;4.00;99.90;;;;;;5074541;28;20413;-70
2023/01/28 13:06:41;;;;;;;19.83;14.87;;;3.80;99.90;;;;;;5092637;28;20430;-71
2023/01/28 13:09:21;;;;;;;18.10;13.80;;;4.00;99.90;;;;;;5047789;28;20419;-71
2023/01/28 13:11:50;;;;;;;18.13;12.53;;;4.20;99.90;;;;;;5092715;28;20407;-71
2023/01/28 13:14:19;;;;;;;15.00;10.13;;;4.20;99.90;;;;;;5092560;28;20420;-71
2023/01/28 13:16:44;;;;;;;11.33;9.60;;;4.20;99.90;;;;;;5072184;28;20884;-71
2023/01/28 13:19:16;;;;;;;17.93;12.20;;;4.00;99.90;;;;;;5072435;28;20400;-71
2023/01/28 13:21:41;;;;;;;15.50;11.60;;;4.00;99.90;;;;;;5073059;28;20174;-71
2023/01/28 13:24:13;;;;;;;12.23;9.43;;;4.10;99.90;;;;;;5072268;28;20427;-71
2023/01/28 13:26:54;;;;;;;14.30;10.33;;;4.10;99.90;;;;;;5072362;28;20632;-71
2023/01/28 13:29:31;;;;;;;12.43;9.57;;;4.10;99.90;;;;;;5073174;28;20416;-71
2023/01/28 13:32:02;;;;;;;9.07;7.53;;;4.10;99.90;;;;;;5071862;28;20775;-71